sensor_id;sensor_type;location;lat;lon;timestamp;P1;durP1;ratioP1;P2;durP2;ratioP2
69738;SDS011;66905;51.012;4.724;2023-02-10T00:01:38;51.05;;;24.25;;
69738;SDS011;66905;51.012;4.724;2023-02-10T00:04:04;45.13;;;23.95;;
69738;SDS011;66905;51.012;4.724;2023-02-10T00:06:30;47.78;;;24.27;;
69738;SDS011;66905;51.012;4.724;2023-02-10T00:08:57;45.63;;;22.67;;
69738;SDS011;66905;51.012;4.724;2023-02-10T00:11:25;45.88;;;26.45;;
69738;SDS011;66905;51.012;4.724;2023-02-10T00:14:10;45.50;;;23.83;;
69738;SDS011;66905;51.012;4.724;2023-02-10T00:16:37;43.03;;;22.77;;
69738;SDS011;66905;51.012;4.724;2023-02-10T00:19:03;48.42;;;26.17;;
69738;SDS011;66905;51.012;4.724;2023-02-10T00:21:29;46.50;;;23.92;;
69738;SDS011;66905;51.012;4.724;2023-02-10T00:23:55;46.78;;;24.73;;
69738;SDS011;66905;51.012;4.724;2023-02-10T00:26:21;49.63;;;24.63;;
69738;SDS011;66905;51.012;4.724;2023-02-10T00:28:47;40.15;;;22.23;;
69738;SDS011;66905;51.012;4.724;2023-02-10T00:31:13;50.55;;;25.10;;
69738;SDS011;66905;51.012;4.724;2023-02-10T00:33:43;55.00;;;26.55;;
69738;SDS011;66905;51.012;4.724;2023-02-10T00:36:10;49.45;;;23.63;;
69738;SDS011;66905;51.012;4.724;2023-02-10T00:38:38;47.40;;;25.98;;
69738;SDS011;66905;51.012;4.724;2023-02-10T00:41:05;51.00;;;26.65;;
69738;SDS011;66905;51.012;4.724;2023-02-10T00:43:32;52.28;;;28.42;;
69738;SDS011;66905;51.012;4.724;2023-02-10T00:46:02;49.63;;;25.25;;
69738;SDS011;66905;51.012;4.724;2023-02-10T00:48:28;43.15;;;24.35;;
69738;SDS011;66905;51.012;4.724;2023-02-10T00:50:54;48.70;;;25.73;;
69738;SDS011;66905;51.012;4.724;2023-02-10T00:53:20;49.47;;;25.00;;
69738;SDS011;66905;51.012;4.724;2023-02-10T00:55:45;46.95;;;24.40;;
69738;SDS011;66905;51.012;4.724;2023-02-10T00:58:11;51.65;;;25.90;;
69738;SDS011;66905;51.012;4.724;2023-02-10T01:00:39;47.35;;;26.17;;
69738;SDS011;66905;51.012;4.724;2023-02-10T01:03:05;49.08;;;24.33;;
69738;SDS011;66905;51.012;4.724;2023-02-10T01:05:30;42.88;;;22.17;;
69738;SDS011;66905;51.012;4.724;2023-02-10T01:07:56;42.97;;;23.98;;
69738;SDS011;66905;51.012;4.724;2023-02-10T01:10:22;38.45;;;22.60;;
69738;SDS011;66905;51.012;4.724;2023-02-10T01:12:48;42.65;;;23.27;;
69738;SDS011;66905;51.012;4.724;2023-02-10T01:15:13;43.60;;;23.33;;
69738;SDS011;66905;51.012;4.724;2023-02-10T01:17:42;52.40;;;26.42;;
69738;SDS011;66905;51.012;4.724;2023-02-10T01:20:10;51.22;;;26.70;;
69738;SDS011;66905;51.012;4.724;2023-02-10T01:22:36;50.40;;;26.30;;
69738;SDS011;66905;51.012;4.724;2023-02-10T01:25:02;43.45;;;24.90;;
69738;SDS011;66905;51.012;4.724;2023-02-10T01:27:28;46.53;;;24.83;;
69738;SDS011;66905;51.012;4.724;2023-02-10T01:29:53;48.92;;;24.05;;
69738;SDS011;66905;51.012;4.724;2023-02-10T01:32:19;48.15;;;26.02;;
69738;SDS011;66905;51.012;4.724;2023-02-10T01:34:45;48.88;;;24.55;;
69738;SDS011;66905;51.012;4.724;2023-02-10T01:37:11;47.95;;;25.30;;
69738;SDS011;66905;51.012;4.724;2023-02-10T01:39:39;50.65;;;24.80;;
69738;SDS011;66905;51.012;4.724;2023-02-10T01:42:05;47.15;;;26.10;;
69738;SDS011;66905;51.012;4.724;2023-02-10T01:46:59;50.58;;;26.98;;
69738;SDS011;66905;51.012;4.724;2023-02-10T01:49:26;56.60;;;26.00;;
69738;SDS011;66905;51.012;4.724;2023-02-10T01:51:57;55.25;;;25.60;;
69738;SDS011;66905;51.012;4.724;2023-02-10T01:54:33;48.33;;;25.40;;
69738;SDS011;66905;51.012;4.724;2023-02-10T01:57:06;49.72;;;24.77;;
69738;SDS011;66905;51.012;4.724;2023-02-10T01:59:32;47.38;;;25.13;;
69738;SDS011;66905;51.012;4.724;2023-02-10T02:02:01;50.33;;;25.02;;
69738;SDS011;66905;51.012;4.724;2023-02-10T02:04:34;53.15;;;25.85;;
69738;SDS011;66905;51.012;4.724;2023-02-10T02:07:13;50.45;;;25.75;;
69738;SDS011;66905;51.012;4.724;2023-02-10T02:09:42;53.05;;;27.38;;
69738;SDS011;66905;51.012;4.724;2023-02-10T02:15:05;48.47;;;26.17;;
69738;SDS011;66905;51.012;4.724;2023-02-10T02:17:44;49.83;;;26.10;;
69738;SDS011;66905;51.012;4.724;2023-02-10T02:32:01;41.85;;;22.50;;
69738;SDS011;66905;51.012;4.724;2023-02-10T02:34:39;42.88;;;23.88;;
69738;SDS011;66905;51.012;4.724;2023-02-10T02:37:18;44.38;;;23.23;;
69738;SDS011;66905;51.012;4.724;2023-02-10T02:39:54;49.03;;;25.17;;
69738;SDS011;66905;51.012;4.724;2023-02-10T02:42:21;47.90;;;24.73;;
69738;SDS011;66905;51.012;4.724;2023-02-10T02:44:55;43.10;;;24.33;;
69738;SDS011;66905;51.012;4.724;2023-02-10T02:52:39;50.30;;;26.67;;
69738;SDS011;66905;51.012;4.724;2023-02-10T03:00:57;50.72;;;26.33;;
69738;SDS011;66905;51.012;4.724;2023-02-10T03:03:31;55.17;;;26.92;;
69738;SDS011;66905;51.012;4.724;2023-02-10T03:06:00;60.25;;;28.05;;
69738;SDS011;66905;51.012;4.724;2023-02-10T03:08:27;55.15;;;26.40;;
69738;SDS011;66905;51.012;4.724;2023-02-10T03:10:54;57.65;;;28.45;;
69738;SDS011;66905;51.012;4.724;2023-02-10T03:13:20;51.08;;;25.38;;
69738;SDS011;66905;51.012;4.724;2023-02-10T03:15:46;51.83;;;25.85;;
69738;SDS011;66905;51.012;4.724;2023-02-10T03:18:14;52.22;;;26.92;;
69738;SDS011;66905;51.012;4.724;2023-02-10T03:20:40;49.17;;;26.27;;
69738;SDS011;66905;51.012;4.724;2023-02-10T03:23:05;49.65;;;28.08;;
69738;SDS011;66905;51.012;4.724;2023-02-10T03:25:31;60.65;;;27.33;;
69738;SDS011;66905;51.012;4.724;2023-02-10T03:27:57;49.50;;;25.42;;
69738;SDS011;66905;51.012;4.724;2023-02-10T03:30:25;47.03;;;26.67;;
69738;SDS011;66905;51.012;4.724;2023-02-10T03:32:53;52.30;;;26.90;;
69738;SDS011;66905;51.012;4.724;2023-02-10T03:35:21;49.72;;;25.60;;
69738;SDS011;66905;51.012;4.724;2023-02-10T03:37:48;49.75;;;26.83;;
69738;SDS011;66905;51.012;4.724;2023-02-10T03:40:14;45.38;;;24.17;;
69738;SDS011;66905;51.012;4.724;2023-02-10T03:42:40;55.42;;;26.75;;
69738;SDS011;66905;51.012;4.724;2023-02-10T03:45:10;50.47;;;26.65;;
69738;SDS011;66905;51.012;4.724;2023-02-10T03:47:36;51.55;;;26.58;;
69738;SDS011;66905;51.012;4.724;2023-02-10T03:50:04;50.53;;;26.75;;
69738;SDS011;66905;51.012;4.724;2023-02-10T03:52:29;50.33;;;26.23;;
69738;SDS011;66905;51.012;4.724;2023-02-10T03:54:55;56.55;;;26.98;;
69738;SDS011;66905;51.012;4.724;2023-02-10T03:57:21;56.42;;;26.70;;
69738;SDS011;66905;51.012;4.724;2023-02-10T03:59:46;64.22;;;29.27;;
69738;SDS011;66905;51.012;4.724;2023-02-10T04:02:12;58.67;;;30.63;;
69738;SDS011;66905;51.012;4.724;2023-02-10T04:04:38;51.67;;;27.48;;
69738;SDS011;66905;51.012;4.724;2023-02-10T04:07:06;53.45;;;27.17;;
69738;SDS011;66905;51.012;4.724;2023-02-10T04:09:32;57.30;;;28.23;;
69738;SDS011;66905;51.012;4.724;2023-02-10T04:11:57;56.00;;;27.92;;
69738;SDS011;66905;51.012;4.724;2023-02-10T04:14:23;60.03;;;28.45;;
69738;SDS011;66905;51.012;4.724;2023-02-10T04:16:49;58.78;;;29.92;;
69738;SDS011;66905;51.012;4.724;2023-02-10T04:19:17;61.67;;;30.08;;
69738;SDS011;66905;51.012;4.724;2023-02-10T04:21:43;68.57;;;33.03;;
69738;SDS011;66905;51.012;4.724;2023-02-10T04:24:09;57.20;;;30.35;;
69738;SDS011;66905;51.012;4.724;2023-02-10T04:26:37;67.55;;;31.92;;
69738;SDS011;66905;51.012;4.724;2023-02-10T04:29:04;61.13;;;28.85;;
69738;SDS011;66905;51.012;4.724;2023-02-10T04:31:30;56.78;;;28.75;;
69738;SDS011;66905;51.012;4.724;2023-02-10T04:33:56;53.00;;;27.35;;
69738;SDS011;66905;51.012;4.724;2023-02-10T04:36:22;50.38;;;24.75;;
69738;SDS011;66905;51.012;4.724;2023-02-10T04:38:47;57.17;;;26.27;;
69738;SDS011;66905;51.012;4.724;2023-02-10T04:41:13;54.45;;;27.13;;
69738;SDS011;66905;51.012;4.724;2023-02-10T04:43:39;57.00;;;28.30;;
69738;SDS011;66905;51.012;4.724;2023-02-10T04:46:05;57.00;;;27.95;;
69738;SDS011;66905;51.012;4.724;2023-02-10T04:48:33;58.50;;;28.05;;
69738;SDS011;66905;51.012;4.724;2023-02-10T04:50:59;54.72;;;29.15;;
69738;SDS011;66905;51.012;4.724;2023-02-10T04:53:30;60.17;;;29.63;;
69738;SDS011;66905;51.012;4.724;2023-02-10T04:55:56;56.75;;;29.90;;
69738;SDS011;66905;51.012;4.724;2023-02-10T04:58:21;55.50;;;27.95;;
69738;SDS011;66905;51.012;4.724;2023-02-10T05:00:49;66.20;;;27.98;;
69738;SDS011;66905;51.012;4.724;2023-02-10T05:03:19;70.38;;;30.65;;
69738;SDS011;66905;51.012;4.724;2023-02-10T05:05:44;73.05;;;29.67;;
69738;SDS011;66905;51.012;4.724;2023-02-10T05:08:10;61.38;;;26.58;;
69738;SDS011;66905;51.012;4.724;2023-02-10T05:10:38;65.65;;;29.85;;
69738;SDS011;66905;51.012;4.724;2023-02-10T05:13:04;62.22;;;27.63;;
69738;SDS011;66905;51.012;4.724;2023-02-10T05:15:30;57.25;;;29.20;;
69738;SDS011;66905;51.012;4.724;2023-02-10T05:17:56;60.35;;;29.38;;
69738;SDS011;66905;51.012;4.724;2023-02-10T05:20:21;55.00;;;29.05;;
69738;SDS011;66905;51.012;4.724;2023-02-10T05:22:49;64.65;;;29.40;;
69738;SDS011;66905;51.012;4.724;2023-02-10T05:25:17;63.88;;;29.83;;
69738;SDS011;66905;51.012;4.724;2023-02-10T05:27:45;61.28;;;27.90;;
69738;SDS011;66905;51.012;4.724;2023-02-10T05:30:11;57.72;;;26.30;;
69738;SDS011;66905;51.012;4.724;2023-02-10T05:32:40;59.90;;;27.42;;
69738;SDS011;66905;51.012;4.724;2023-02-10T05:35:06;66.80;;;29.42;;
69738;SDS011;66905;51.012;4.724;2023-02-10T05:37:32;60.40;;;29.10;;
69738;SDS011;66905;51.012;4.724;2023-02-10T05:39:58;63.10;;;29.55;;
69738;SDS011;66905;51.012;4.724;2023-02-10T05:42:25;65.15;;;28.75;;
69738;SDS011;66905;51.012;4.724;2023-02-10T05:44:54;69.03;;;28.65;;
69738;SDS011;66905;51.012;4.724;2023-02-10T05:47:19;63.72;;;30.08;;
69738;SDS011;66905;51.012;4.724;2023-02-10T05:49:45;60.22;;;27.90;;
69738;SDS011;66905;51.012;4.724;2023-02-10T05:52:11;63.92;;;28.67;;
69738;SDS011;66905;51.012;4.724;2023-02-10T05:54:37;76.13;;;32.13;;
69738;SDS011;66905;51.012;4.724;2023-02-10T05:57:05;72.22;;;30.27;;
69738;SDS011;66905;51.012;4.724;2023-02-10T05:59:33;75.05;;;32.30;;
69738;SDS011;66905;51.012;4.724;2023-02-10T06:01:59;79.25;;;34.30;;
69738;SDS011;66905;51.012;4.724;2023-02-10T06:04:25;77.03;;;34.72;;
69738;SDS011;66905;51.012;4.724;2023-02-10T06:06:50;83.20;;;36.40;;
69738;SDS011;66905;51.012;4.724;2023-02-10T06:09:16;74.45;;;32.05;;
69738;SDS011;66905;51.012;4.724;2023-02-10T06:11:42;76.80;;;35.72;;
69738;SDS011;66905;51.012;4.724;2023-02-10T06:14:10;78.82;;;30.90;;
69738;SDS011;66905;51.012;4.724;2023-02-10T06:16:35;83.32;;;36.72;;
69738;SDS011;66905;51.012;4.724;2023-02-10T06:19:01;78.57;;;34.08;;
69738;SDS011;66905;51.012;4.724;2023-02-10T06:21:29;71.65;;;32.65;;
69738;SDS011;66905;51.012;4.724;2023-02-10T06:23:55;58.75;;;29.48;;
69738;SDS011;66905;51.012;4.724;2023-02-10T06:26:23;66.22;;;30.30;;
69738;SDS011;66905;51.012;4.724;2023-02-10T06:28:49;71.25;;;32.80;;
69738;SDS011;66905;51.012;4.724;2023-02-10T06:31:15;71.13;;;30.95;;
69738;SDS011;66905;51.012;4.724;2023-02-10T06:33:42;73.57;;;30.52;;
69738;SDS011;66905;51.012;4.724;2023-02-10T06:36:08;74.15;;;33.83;;
69738;SDS011;66905;51.012;4.724;2023-02-10T06:38:34;77.07;;;32.10;;
69738;SDS011;66905;51.012;4.724;2023-02-10T06:41:01;65.32;;;32.17;;
69738;SDS011;66905;51.012;4.724;2023-02-10T06:43:27;79.50;;;33.90;;
69738;SDS011;66905;51.012;4.724;2023-02-10T06:45:53;73.60;;;31.23;;
69738;SDS011;66905;51.012;4.724;2023-02-10T06:48:19;73.15;;;32.95;;
69738;SDS011;66905;51.012;4.724;2023-02-10T06:50:45;68.38;;;29.00;;
69738;SDS011;66905;51.012;4.724;2023-02-10T06:53:11;71.82;;;29.92;;
69738;SDS011;66905;51.012;4.724;2023-02-10T06:55:36;62.90;;;29.02;;
69738;SDS011;66905;51.012;4.724;2023-02-10T06:58:02;73.43;;;28.60;;
69738;SDS011;66905;51.012;4.724;2023-02-10T07:00:31;65.60;;;28.67;;
69738;SDS011;66905;51.012;4.724;2023-02-10T07:02:59;65.65;;;31.75;;
69738;SDS011;66905;51.012;4.724;2023-02-10T07:05:25;60.03;;;28.02;;
69738;SDS011;66905;51.012;4.724;2023-02-10T07:07:51;80.20;;;33.20;;
69738;SDS011;66905;51.012;4.724;2023-02-10T07:10:18;82.18;;;35.30;;
69738;SDS011;66905;51.012;4.724;2023-02-10T07:12:45;83.68;;;36.70;;
69738;SDS011;66905;51.012;4.724;2023-02-10T07:15:12;90.57;;;37.35;;
69738;SDS011;66905;51.012;4.724;2023-02-10T07:17:38;95.72;;;38.15;;
69738;SDS011;66905;51.012;4.724;2023-02-10T07:20:04;92.93;;;38.15;;
69738;SDS011;66905;51.012;4.724;2023-02-10T07:22:30;90.75;;;37.78;;
69738;SDS011;66905;51.012;4.724;2023-02-10T07:24:56;96.85;;;39.38;;
69738;SDS011;66905;51.012;4.724;2023-02-10T07:27:22;100.13;;;39.35;;
69738;SDS011;66905;51.012;4.724;2023-02-10T07:29:48;98.80;;;40.05;;
69738;SDS011;66905;51.012;4.724;2023-02-10T07:32:14;93.05;;;39.67;;
69738;SDS011;66905;51.012;4.724;2023-02-10T07:34:44;80.90;;;33.20;;
69738;SDS011;66905;51.012;4.724;2023-02-10T07:37:11;82.93;;;37.03;;
69738;SDS011;66905;51.012;4.724;2023-02-10T07:39:39;82.72;;;35.72;;
69738;SDS011;66905;51.012;4.724;2023-02-10T07:42:09;76.90;;;33.90;;
69738;SDS011;66905;51.012;4.724;2023-02-10T07:44:35;84.32;;;36.70;;
69738;SDS011;66905;51.012;4.724;2023-02-10T07:47:00;90.30;;;37.78;;
69738;SDS011;66905;51.012;4.724;2023-02-10T07:49:26;89.95;;;37.55;;
69738;SDS011;66905;51.012;4.724;2023-02-10T07:51:54;90.38;;;38.65;;
69738;SDS011;66905;51.012;4.724;2023-02-10T07:54:22;83.25;;;37.15;;
69738;SDS011;66905;51.012;4.724;2023-02-10T07:56:48;80.15;;;35.47;;
69738;SDS011;66905;51.012;4.724;2023-02-10T07:59:13;79.72;;;36.78;;
69738;SDS011;66905;51.012;4.724;2023-02-10T08:01:39;80.50;;;37.88;;
69738;SDS011;66905;51.012;4.724;2023-02-10T08:04:11;75.80;;;33.28;;
69738;SDS011;66905;51.012;4.724;2023-02-10T08:06:37;66.40;;;31.75;;
69738;SDS011;66905;51.012;4.724;2023-02-10T08:09:05;69.47;;;32.55;;
69738;SDS011;66905;51.012;4.724;2023-02-10T08:11:32;68.43;;;33.33;;
69738;SDS011;66905;51.012;4.724;2023-02-10T08:13:58;73.53;;;33.78;;
69738;SDS011;66905;51.012;4.724;2023-02-10T08:16:25;67.50;;;31.20;;
69738;SDS011;66905;51.012;4.724;2023-02-10T08:18:53;62.35;;;29.98;;
69738;SDS011;66905;51.012;4.724;2023-02-10T08:21:18;70.82;;;33.10;;
69738;SDS011;66905;51.012;4.724;2023-02-10T08:23:44;70.15;;;33.33;;
69738;SDS011;66905;51.012;4.724;2023-02-10T08:26:11;68.28;;;30.75;;
69738;SDS011;66905;51.012;4.724;2023-02-10T08:28:38;69.63;;;33.78;;
69738;SDS011;66905;51.012;4.724;2023-02-10T08:31:08;80.28;;;39.17;;
69738;SDS011;66905;51.012;4.724;2023-02-10T08:33:37;76.50;;;34.55;;
69738;SDS011;66905;51.012;4.724;2023-02-10T08:36:07;70.47;;;33.08;;
69738;SDS011;66905;51.012;4.724;2023-02-10T08:38:34;68.82;;;32.72;;
69738;SDS011;66905;51.012;4.724;2023-02-10T08:41:00;64.65;;;29.50;;
69738;SDS011;66905;51.012;4.724;2023-02-10T08:43:26;59.47;;;29.83;;
69738;SDS011;66905;51.012;4.724;2023-02-10T08:45:54;53.38;;;28.92;;
69738;SDS011;66905;51.012;4.724;2023-02-10T08:48:21;57.00;;;28.02;;
69738;SDS011;66905;51.012;4.724;2023-02-10T08:50:49;57.55;;;26.92;;
69738;SDS011;66905;51.012;4.724;2023-02-10T08:53:14;51.25;;;27.17;;
69738;SDS011;66905;51.012;4.724;2023-02-10T08:55:40;49.08;;;27.65;;
69738;SDS011;66905;51.012;4.724;2023-02-10T08:58:06;47.25;;;27.17;;
69738;SDS011;66905;51.012;4.724;2023-02-10T09:00:32;46.40;;;25.27;;
69738;SDS011;66905;51.012;4.724;2023-02-10T09:02:58;47.10;;;27.63;;
69738;SDS011;66905;51.012;4.724;2023-02-10T09:05:24;47.33;;;27.63;;
69738;SDS011;66905;51.012;4.724;2023-02-10T09:07:54;46.20;;;26.65;;
69738;SDS011;66905;51.012;4.724;2023-02-10T09:10:20;44.15;;;26.33;;
69738;SDS011;66905;51.012;4.724;2023-02-10T09:12:50;46.38;;;27.08;;
69738;SDS011;66905;51.012;4.724;2023-02-10T09:15:16;47.92;;;26.23;;
69738;SDS011;66905;51.012;4.724;2023-02-10T09:17:42;49.40;;;27.70;;
69738;SDS011;66905;51.012;4.724;2023-02-10T09:20:07;44.88;;;24.77;;
69738;SDS011;66905;51.012;4.724;2023-02-10T09:22:35;46.78;;;27.55;;
69738;SDS011;66905;51.012;4.724;2023-02-10T09:25:00;53.78;;;28.85;;
69738;SDS011;66905;51.012;4.724;2023-02-10T09:27:29;54.88;;;27.40;;
69738;SDS011;66905;51.012;4.724;2023-02-10T09:29:56;52.08;;;29.02;;
69738;SDS011;66905;51.012;4.724;2023-02-10T09:32:22;49.15;;;26.48;;
69738;SDS011;66905;51.012;4.724;2023-02-10T09:34:50;51.88;;;27.63;;
69738;SDS011;66905;51.012;4.724;2023-02-10T09:37:16;54.45;;;24.42;;
69738;SDS011;66905;51.012;4.724;2023-02-10T09:39:42;51.65;;;30.20;;
69738;SDS011;66905;51.012;4.724;2023-02-10T09:44:36;61.13;;;30.67;;
69738;SDS011;66905;51.012;4.724;2023-02-10T09:52:46;61.90;;;30.65;;
69738;SDS011;66905;51.012;4.724;2023-02-10T10:00:47;52.53;;;26.60;;
69738;SDS011;66905;51.012;4.724;2023-02-10T10:03:18;53.50;;;27.42;;
69738;SDS011;66905;51.012;4.724;2023-02-10T10:05:57;54.22;;;29.27;;
69738;SDS011;66905;51.012;4.724;2023-02-10T10:11:37;53.55;;;26.38;;
69738;SDS011;66905;51.012;4.724;2023-02-10T10:14:03;50.15;;;25.40;;
69738;SDS011;66905;51.012;4.724;2023-02-10T10:16:39;43.88;;;23.02;;
69738;SDS011;66905;51.012;4.724;2023-02-10T10:19:27;52.03;;;28.48;;
69738;SDS011;66905;51.012;4.724;2023-02-10T10:24:39;48.13;;;23.00;;
69738;SDS011;66905;51.012;4.724;2023-02-10T10:30:02;58.25;;;29.38;;
69738;SDS011;66905;51.012;4.724;2023-02-10T10:32:43;55.15;;;27.20;;
69738;SDS011;66905;51.012;4.724;2023-02-10T10:35:17;63.90;;;29.60;;
69738;SDS011;66905;51.012;4.724;2023-02-10T10:37:53;50.67;;;27.23;;
69738;SDS011;66905;51.012;4.724;2023-02-10T10:40:22;64.95;;;31.35;;
69738;SDS011;66905;51.012;4.724;2023-02-10T10:42:57;68.47;;;32.58;;
69738;SDS011;66905;51.012;4.724;2023-02-10T10:45:29;67.35;;;32.70;;
69738;SDS011;66905;51.012;4.724;2023-02-10T10:48:19;69.28;;;31.40;;
69738;SDS011;66905;51.012;4.724;2023-02-10T10:50:55;64.85;;;31.90;;
69738;SDS011;66905;51.012;4.724;2023-02-10T10:54:10;67.85;;;31.15;;
69738;SDS011;66905;51.012;4.724;2023-02-10T10:56:21;50.75;;;24.27;;
69738;SDS011;66905;51.012;4.724;2023-02-10T10:59:14;53.13;;;26.30;;
69738;SDS011;66905;51.012;4.724;2023-02-10T11:02:13;63.15;;;25.10;;
69738;SDS011;66905;51.012;4.724;2023-02-10T11:04:59;56.10;;;29.42;;
69738;SDS011;66905;51.012;4.724;2023-02-10T11:07:26;54.70;;;28.15;;
69738;SDS011;66905;51.012;4.724;2023-02-10T11:09:55;57.83;;;32.08;;
69738;SDS011;66905;51.012;4.724;2023-02-10T11:12:24;46.75;;;26.05;;
69738;SDS011;66905;51.012;4.724;2023-02-10T11:15:02;50.60;;;26.00;;
69738;SDS011;66905;51.012;4.724;2023-02-10T11:17:48;55.25;;;29.60;;
69738;SDS011;66905;51.012;4.724;2023-02-10T11:22:42;58.30;;;29.95;;
69738;SDS011;66905;51.012;4.724;2023-02-10T11:25:27;62.35;;;30.33;;
69738;SDS011;66905;51.012;4.724;2023-02-10T11:28:03;61.63;;;31.90;;
69738;SDS011;66905;51.012;4.724;2023-02-10T11:30:38;54.08;;;29.38;;
69738;SDS011;66905;51.012;4.724;2023-02-10T11:33:06;52.28;;;27.73;;
69738;SDS011;66905;51.012;4.724;2023-02-10T11:35:52;54.78;;;27.35;;
69738;SDS011;66905;51.012;4.724;2023-02-10T11:38:26;60.10;;;24.08;;
69738;SDS011;66905;51.012;4.724;2023-02-10T11:40:59;52.80;;;27.23;;
69738;SDS011;66905;51.012;4.724;2023-02-10T11:46:16;60.42;;;31.17;;
69738;SDS011;66905;51.012;4.724;2023-02-10T11:49:01;53.58;;;28.10;;
69738;SDS011;66905;51.012;4.724;2023-02-10T11:51:30;58.22;;;28.48;;
69738;SDS011;66905;51.012;4.724;2023-02-10T11:53:56;63.10;;;29.83;;
69738;SDS011;66905;51.012;4.724;2023-02-10T12:05:02;56.58;;;25.23;;
69738;SDS011;66905;51.012;4.724;2023-02-10T12:13:05;76.05;;;32.15;;
69738;SDS011;66905;51.012;4.724;2023-02-10T12:24:29;70.40;;;32.30;;
69738;SDS011;66905;51.012;4.724;2023-02-10T12:27:07;68.50;;;33.05;;
69738;SDS011;66905;51.012;4.724;2023-02-10T12:35:48;48.72;;;21.45;;
69738;SDS011;66905;51.012;4.724;2023-02-10T12:38:27;46.30;;;23.33;;
69738;SDS011;66905;51.012;4.724;2023-02-10T12:44:17;47.35;;;21.60;;
69738;SDS011;66905;51.012;4.724;2023-02-10T12:52:43;45.45;;;20.63;;
69738;SDS011;66905;51.012;4.724;2023-02-10T12:55:18;40.20;;;20.13;;
69738;SDS011;66905;51.012;4.724;2023-02-10T12:57:52;36.53;;;18.83;;
69738;SDS011;66905;51.012;4.724;2023-02-10T13:00:24;37.70;;;17.10;;
69738;SDS011;66905;51.012;4.724;2023-02-10T13:03:10;39.35;;;19.58;;
69738;SDS011;66905;51.012;4.724;2023-02-10T13:05:38;42.67;;;21.27;;
69738;SDS011;66905;51.012;4.724;2023-02-10T13:10:42;40.85;;;18.92;;
69738;SDS011;66905;51.012;4.724;2023-02-10T13:13:13;45.20;;;20.42;;
69738;SDS011;66905;51.012;4.724;2023-02-10T13:16:03;37.70;;;19.13;;
69738;SDS011;66905;51.012;4.724;2023-02-10T13:23:48;52.80;;;21.33;;
69738;SDS011;66905;51.012;4.724;2023-02-10T13:34:43;40.65;;;18.85;;
69738;SDS011;66905;51.012;4.724;2023-02-10T13:39:59;42.08;;;20.15;;
69738;SDS011;66905;51.012;4.724;2023-02-10T13:42:33;37.17;;;17.80;;
69738;SDS011;66905;51.012;4.724;2023-02-10T13:45:05;36.78;;;19.92;;
69738;SDS011;66905;51.012;4.724;2023-02-10T13:47:46;36.83;;;19.42;;
69738;SDS011;66905;51.012;4.724;2023-02-10T13:52:48;38.30;;;18.38;;
69738;SDS011;66905;51.012;4.724;2023-02-10T13:58:36;37.55;;;18.40;;
69738;SDS011;66905;51.012;4.724;2023-02-10T14:08:36;42.85;;;22.02;;
69738;SDS011;66905;51.012;4.724;2023-02-10T14:13:39;50.72;;;24.52;;
69738;SDS011;66905;51.012;4.724;2023-02-10T14:19:03;46.22;;;21.55;;
69738;SDS011;66905;51.012;4.724;2023-02-10T14:21:38;48.08;;;20.98;;
69738;SDS011;66905;51.012;4.724;2023-02-10T14:24:09;42.03;;;20.23;;
69738;SDS011;66905;51.012;4.724;2023-02-10T14:26:41;48.40;;;21.23;;
69738;SDS011;66905;51.012;4.724;2023-02-10T14:29:13;54.08;;;23.25;;
69738;SDS011;66905;51.012;4.724;2023-02-10T14:31:40;47.20;;;17.83;;
69738;SDS011;66905;51.012;4.724;2023-02-10T14:34:18;44.97;;;21.27;;
69738;SDS011;66905;51.012;4.724;2023-02-10T14:37:10;53.00;;;23.80;;
69738;SDS011;66905;51.012;4.724;2023-02-10T14:39:49;55.40;;;22.92;;
69738;SDS011;66905;51.012;4.724;2023-02-10T14:42:24;51.15;;;23.98;;
69738;SDS011;66905;51.012;4.724;2023-02-10T14:44:55;48.47;;;19.98;;
69738;SDS011;66905;51.012;4.724;2023-02-10T14:47:30;48.28;;;20.38;;
69738;SDS011;66905;51.012;4.724;2023-02-10T14:50:02;50.35;;;22.65;;
69738;SDS011;66905;51.012;4.724;2023-02-10T14:52:30;50.28;;;21.45;;
69738;SDS011;66905;51.012;4.724;2023-02-10T14:54:59;51.22;;;23.15;;
69738;SDS011;66905;51.012;4.724;2023-02-10T14:57:26;57.63;;;21.95;;
69738;SDS011;66905;51.012;4.724;2023-02-10T14:59:56;49.70;;;22.15;;
69738;SDS011;66905;51.012;4.724;2023-02-10T15:02:25;50.25;;;21.73;;
69738;SDS011;66905;51.012;4.724;2023-02-10T15:04:54;58.58;;;22.92;;
69738;SDS011;66905;51.012;4.724;2023-02-10T15:07:23;55.35;;;23.88;;
69738;SDS011;66905;51.012;4.724;2023-02-10T15:09:50;59.78;;;22.48;;
69738;SDS011;66905;51.012;4.724;2023-02-10T15:12:17;51.85;;;24.33;;
69738;SDS011;66905;51.012;4.724;2023-02-10T15:17:40;60.63;;;24.23;;
69738;SDS011;66905;51.012;4.724;2023-02-10T15:22:42;53.78;;;22.67;;
69738;SDS011;66905;51.012;4.724;2023-02-10T15:36:16;55.15;;;23.20;;
69738;SDS011;66905;51.012;4.724;2023-02-10T15:43:51;59.75;;;24.52;;
69738;SDS011;66905;51.012;4.724;2023-02-10T15:46:21;50.25;;;22.58;;
69738;SDS011;66905;51.012;4.724;2023-02-10T15:48:48;57.67;;;24.67;;
69738;SDS011;66905;51.012;4.724;2023-02-10T15:53:53;52.50;;;23.65;;
69738;SDS011;66905;51.012;4.724;2023-02-10T15:56:24;54.67;;;26.17;;
69738;SDS011;66905;51.012;4.724;2023-02-10T15:58:51;54.58;;;25.05;;
69738;SDS011;66905;51.012;4.724;2023-02-10T16:01:17;50.20;;;23.20;;
69738;SDS011;66905;51.012;4.724;2023-02-10T16:03:43;54.50;;;24.35;;
69738;SDS011;66905;51.012;4.724;2023-02-10T16:06:12;57.42;;;23.88;;
69738;SDS011;66905;51.012;4.724;2023-02-10T16:08:40;55.38;;;24.48;;
69738;SDS011;66905;51.012;4.724;2023-02-10T16:11:06;50.67;;;22.50;;
69738;SDS011;66905;51.012;4.724;2023-02-10T16:13:35;53.72;;;23.25;;
69738;SDS011;66905;51.012;4.724;2023-02-10T16:16:00;54.95;;;22.80;;
69738;SDS011;66905;51.012;4.724;2023-02-10T16:18:26;58.75;;;25.55;;
69738;SDS011;66905;51.012;4.724;2023-02-10T16:20:56;62.33;;;26.92;;
69738;SDS011;66905;51.012;4.724;2023-02-10T16:23:24;61.67;;;24.77;;
69738;SDS011;66905;51.012;4.724;2023-02-10T16:25:54;55.28;;;25.13;;
69738;SDS011;66905;51.012;4.724;2023-02-10T16:28:19;62.55;;;26.90;;
69738;SDS011;66905;51.012;4.724;2023-02-10T16:30:45;59.70;;;25.25;;
69738;SDS011;66905;51.012;4.724;2023-02-10T16:33:11;59.10;;;24.95;;
69738;SDS011;66905;51.012;4.724;2023-02-10T16:35:38;51.78;;;24.15;;
69738;SDS011;66905;51.012;4.724;2023-02-10T16:38:06;53.80;;;24.38;;
69738;SDS011;66905;51.012;4.724;2023-02-10T16:40:33;56.97;;;25.45;;
69738;SDS011;66905;51.012;4.724;2023-02-10T16:43:00;60.53;;;25.30;;
69738;SDS011;66905;51.012;4.724;2023-02-10T16:45:27;62.05;;;25.08;;
69738;SDS011;66905;51.012;4.724;2023-02-10T16:47:55;64.05;;;25.67;;
69738;SDS011;66905;51.012;4.724;2023-02-10T16:50:24;62.70;;;26.38;;
69738;SDS011;66905;51.012;4.724;2023-02-10T16:53:04;57.25;;;24.70;;
69738;SDS011;66905;51.012;4.724;2023-02-10T16:55:32;55.75;;;25.25;;
69738;SDS011;66905;51.012;4.724;2023-02-10T16:57:58;65.60;;;26.77;;
69738;SDS011;66905;51.012;4.724;2023-02-10T17:00:24;53.70;;;25.45;;
69738;SDS011;66905;51.012;4.724;2023-02-10T17:02:51;63.47;;;27.65;;
69738;SDS011;66905;51.012;4.724;2023-02-10T17:05:17;63.75;;;26.52;;
69738;SDS011;66905;51.012;4.724;2023-02-10T17:07:43;63.60;;;28.25;;